sensor_id;sensor_type;location;lat;lon;timestamp;temperature;humidity
8662;DHT22;29684;47.722;9.388;2023-04-16T00:01:06;6.10;99.90
8662;DHT22;29684;47.722;9.388;2023-04-16T00:03:50;6.10;99.90
8662;DHT22;29684;47.722;9.388;2023-04-16T00:06:34;6.00;99.90
8662;DHT22;29684;47.722;9.388;2023-04-16T00:09:19;6.00;99.90
8662;DHT22;29684;47.722;9.388;2023-04-16T00:12:04;5.90;99.90
8662;DHT22;29684;47.722;9.388;2023-04-16T00:14:49;5.90;99.90
8662;DHT22;29684;47.722;9.388;2023-04-16T00:17:33;5.90;99.90
8662;DHT22;29684;47.722;9.388;2023-04-16T00:20:17;5.90;99.90
8662;DHT22;29684;47.722;9.388;2023-04-16T00:23:03;5.80;99.90
8662;DHT22;29684;47.722;9.388;2023-04-16T00:25:47;5.90;99.90
8662;DHT22;29684;47.722;9.388;2023-04-16T00:28:31;6.00;99.90
8662;DHT22;29684;47.722;9.388;2023-04-16T00:31:15;5.90;99.90
8662;DHT22;29684;47.722;9.388;2023-04-16T00:33:59;6.00;99.90
8662;DHT22;29684;47.722;9.388;2023-04-16T00:36:43;5.90;99.90
8662;DHT22;29684;47.722;9.388;2023-04-16T00:39:27;5.90;99.90
8662;DHT22;29684;47.722;9.388;2023-04-16T00:42:12;5.90;99.90
8662;DHT22;29684;47.722;9.388;2023-04-16T00:44:56;5.90;99.90
8662;DHT22;29684;47.722;9.388;2023-04-16T00:47:40;5.90;99.90
8662;DHT22;29684;47.722;9.388;2023-04-16T00:50:24;5.90;99.90
8662;DHT22;29684;47.722;9.388;2023-04-16T00:53:08;6.30;99.90
8662;DHT22;29684;47.722;9.388;2023-04-16T00:55:54;5.90;99.90
8662;DHT22;29684;47.722;9.388;2023-04-16T00:58:39;6.00;99.90
8662;DHT22;29684;47.722;9.388;2023-04-16T01:01:23;5.90;99.90
8662;DHT22;29684;47.722;9.388;2023-04-16T01:04:07;6.00;99.90
8662;DHT22;29684;47.722;9.388;2023-04-16T01:06:52;5.90;99.90
8662;DHT22;29684;47.722;9.388;2023-04-16T01:09:36;5.90;99.90
8662;DHT22;29684;47.722;9.388;2023-04-16T01:12:20;6.00;99.90
8662;DHT22;29684;47.722;9.388;2023-04-16T01:15:04;6.00;99.90
8662;DHT22;29684;47.722;9.388;2023-04-16T01:17:49;6.00;99.90
8662;DHT22;29684;47.722;9.388;2023-04-16T01:20:34;6.00;99.90
8662;DHT22;29684;47.722;9.388;2023-04-16T01:23:19;6.00;99.90
8662;DHT22;29684;47.722;9.388;2023-04-16T01:26:03;5.90;99.90
8662;DHT22;29684;47.722;9.388;2023-04-16T01:28:47;6.00;99.90
8662;DHT22;29684;47.722;9.388;2023-04-16T01:31:31;6.00;99.90
8662;DHT22;29684;47.722;9.388;2023-04-16T01:34:15;6.00;99.90
8662;DHT22;29684;47.722;9.388;2023-04-16T01:37:00;6.00;99.90
8662;DHT22;29684;47.722;9.388;2023-04-16T01:39:44;6.00;99.90
8662;DHT22;29684;47.722;9.388;2023-04-16T01:42:28;6.00;99.90
8662;DHT22;29684;47.722;9.388;2023-04-16T01:45:12;6.00;99.90
8662;DHT22;29684;47.722;9.388;2023-04-16T01:47:57;6.00;99.90
8662;DHT22;29684;47.722;9.388;2023-04-16T01:50:41;6.00;99.90
8662;DHT22;29684;47.722;9.388;2023-04-16T01:53:25;6.00;99.90
8662;DHT22;29684;47.722;9.388;2023-04-16T01:56:09;6.10;99.90
8662;DHT22;29684;47.722;9.388;2023-04-16T01:58:53;6.10;99.90
8662;DHT22;29684;47.722;9.388;2023-04-16T02:01:38;6.00;99.90
8662;DHT22;29684;47.722;9.388;2023-04-16T02:04:22;6.00;99.90
8662;DHT22;29684;47.722;9.388;2023-04-16T02:07:07;6.50;99.90
8662;DHT22;29684;47.722;9.388;2023-04-16T02:09:52;6.00;99.90
8662;DHT22;29684;47.722;9.388;2023-04-16T02:12:36;6.00;99.90
8662;DHT22;29684;47.722;9.388;2023-04-16T02:15:20;6.00;99.90
8662;DHT22;29684;47.722;9.388;2023-04-16T02:18:05;6.00;99.90
8662;DHT22;29684;47.722;9.388;2023-04-16T02:20:50;6.00;99.90
8662;DHT22;29684;47.722;9.388;2023-04-16T02:23:34;6.00;99.90
8662;DHT22;29684;47.722;9.388;2023-04-16T02:26:18;6.10;99.90
8662;DHT22;29684;47.722;9.388;2023-04-16T02:29:02;6.10;99.90
8662;DHT22;29684;47.722;9.388;2023-04-16T02:31:46;6.10;99.90
8662;DHT22;29684;47.722;9.388;2023-04-16T02:34:31;6.10;99.90
8662;DHT22;29684;47.722;9.388;2023-04-16T02:37:17;6.10;99.90
8662;DHT22;29684;47.722;9.388;2023-04-16T02:40:01;6.10;99.90
8662;DHT22;29684;47.722;9.388;2023-04-16T02:42:45;6.20;99.90
8662;DHT22;29684;47.722;9.388;2023-04-16T02:45:30;6.10;99.90
8662;DHT22;29684;47.722;9.388;2023-04-16T02:48:14;6.10;99.90
8662;DHT22;29684;47.722;9.388;2023-04-16T02:50:58;6.10;99.90
8662;DHT22;29684;47.722;9.388;2023-04-16T02:53:42;6.10;99.90
8662;DHT22;29684;47.722;9.388;2023-04-16T02:56:28;6.10;99.90
8662;DHT22;29684;47.722;9.388;2023-04-16T02:59:12;6.00;99.90
8662;DHT22;29684;47.722;9.388;2023-04-16T03:01:56;6.10;99.90
8662;DHT22;29684;47.722;9.388;2023-04-16T03:04:40;6.10;99.90
8662;DHT22;29684;47.722;9.388;2023-04-16T03:07:25;6.10;99.90
8662;DHT22;29684;47.722;9.388;2023-04-16T03:10:09;6.10;99.90
8662;DHT22;29684;47.722;9.388;2023-04-16T03:12:55;6.10;99.90
8662;DHT22;29684;47.722;9.388;2023-04-16T03:15:39;6.10;99.90
8662;DHT22;29684;47.722;9.388;2023-04-16T03:18:23;6.10;99.90
8662;DHT22;29684;47.722;9.388;2023-04-16T03:21:07;4.90;99.90
8662;DHT22;29684;47.722;9.388;2023-04-16T03:23:51;6.10;99.90
8662;DHT22;29684;47.722;9.388;2023-04-16T03:26:36;6.20;99.90
8662;DHT22;29684;47.722;9.388;2023-04-16T03:29:20;6.20;99.90
8662;DHT22;29684;47.722;9.388;2023-04-16T03:32:04;6.20;99.90
8662;DHT22;29684;47.722;9.388;2023-04-16T03:34:49;6.30;99.90
8662;DHT22;29684;47.722;9.388;2023-04-16T03:37:34;6.30;99.90
8662;DHT22;29684;47.722;9.388;2023-04-16T03:40:19;6.20;99.90
8662;DHT22;29684;47.722;9.388;2023-04-16T03:43:03;6.20;99.90
8662;DHT22;29684;47.722;9.388;2023-04-16T03:45:47;6.20;99.90
8662;DHT22;29684;47.722;9.388;2023-04-16T03:48:31;6.20;99.90
8662;DHT22;29684;47.722;9.388;2023-04-16T03:51:16;6.20;99.90
8662;DHT22;29684;47.722;9.388;2023-04-16T03:54:00;6.20;99.90
8662;DHT22;29684;47.722;9.388;2023-04-16T03:56:44;6.20;99.90
8662;DHT22;29684;47.722;9.388;2023-04-16T03:59:28;6.30;99.90
8662;DHT22;29684;47.722;9.388;2023-04-16T04:02:13;6.30;99.90
8662;DHT22;29684;47.722;9.388;2023-04-16T04:04:57;6.30;99.90
8662;DHT22;29684;47.722;9.388;2023-04-16T04:07:41;6.30;99.90
8662;DHT22;29684;47.722;9.388;2023-04-16T04:10:25;6.30;99.90
8662;DHT22;29684;47.722;9.388;2023-04-16T04:13:09;6.30;99.90
8662;DHT22;29684;47.722;9.388;2023-04-16T04:15:54;6.30;99.90
8662;DHT22;29684;47.722;9.388;2023-04-16T04:18:38;6.30;99.90
8662;DHT22;29684;47.722;9.388;2023-04-16T04:21:23;6.30;99.90
8662;DHT22;29684;47.722;9.388;2023-04-16T04:24:07;6.30;99.90
8662;DHT22;29684;47.722;9.388;2023-04-16T04:26:51;6.30;99.90
8662;DHT22;29684;47.722;9.388;2023-04-16T04:29:35;6.40;99.90
8662;DHT22;29684;47.722;9.388;2023-04-16T04:32:19;6.40;99.90
8662;DHT22;29684;47.722;9.388;2023-04-16T04:35:04;6.30;99.90
8662;DHT22;29684;47.722;9.388;2023-04-16T04:37:49;6.30;99.90
8662;DHT22;29684;47.722;9.388;2023-04-16T04:40:33;6.30;99.90
8662;DHT22;29684;47.722;9.388;2023-04-16T04:43:18;6.30;99.90
8662;DHT22;29684;47.722;9.388;2023-04-16T04:46:03;6.30;99.90
8662;DHT22;29684;47.722;9.388;2023-04-16T04:48:48;6.40;99.90
8662;DHT22;29684;47.722;9.388;2023-04-16T04:51:32;6.30;99.90
8662;DHT22;29684;47.722;9.388;2023-04-16T04:54:16;6.40;99.90
8662;DHT22;29684;47.722;9.388;2023-04-16T04:57:00;6.30;99.90
8662;DHT22;29684;47.722;9.388;2023-04-16T04:59:44;6.30;99.90
8662;DHT22;29684;47.722;9.388;2023-04-16T05:02:29;6.30;99.90
8662;DHT22;29684;47.722;9.388;2023-04-16T05:05:13;6.40;99.90
8662;DHT22;29684;47.722;9.388;2023-04-16T05:07:57;6.30;99.90
8662;DHT22;29684;47.722;9.388;2023-04-16T05:10:41;6.30;99.90
8662;DHT22;29684;47.722;9.388;2023-04-16T05:13:25;6.40;99.90
8662;DHT22;29684;47.722;9.388;2023-04-16T05:16:09;6.50;99.90
8662;DHT22;29684;47.722;9.388;2023-04-16T05:18:53;6.40;99.90
8662;DHT22;29684;47.722;9.388;2023-04-16T05:21:39;6.50;99.90
8662;DHT22;29684;47.722;9.388;2023-04-16T05:24:23;6.40;99.90
8662;DHT22;29684;47.722;9.388;2023-04-16T05:27:07;6.40;99.90
8662;DHT22;29684;47.722;9.388;2023-04-16T05:29:52;6.40;99.90
8662;DHT22;29684;47.722;9.388;2023-04-16T05:32:38;6.40;99.90
8662;DHT22;29684;47.722;9.388;2023-04-16T05:35:24;6.40;99.90
8662;DHT22;29684;47.722;9.388;2023-04-16T05:38:08;6.50;99.90
8662;DHT22;29684;47.722;9.388;2023-04-16T05:40:53;6.50;99.90
8662;DHT22;29684;47.722;9.388;2023-04-16T05:43:37;5.60;99.90
8662;DHT22;29684;47.722;9.388;2023-04-16T05:46:21;6.50;99.90
8662;DHT22;29684;47.722;9.388;2023-04-16T05:49:05;6.50;99.90
8662;DHT22;29684;47.722;9.388;2023-04-16T05:51:49;6.50;99.90
8662;DHT22;29684;47.722;9.388;2023-04-16T05:54:33;6.50;99.90
8662;DHT22;29684;47.722;9.388;2023-04-16T05:57:17;6.60;99.90
8662;DHT22;29684;47.722;9.388;2023-04-16T06:00:01;6.60;99.90
8662;DHT22;29684;47.722;9.388;2023-04-16T06:02:46;6.50;99.90
8662;DHT22;29684;47.722;9.388;2023-04-16T06:05:30;6.50;99.90
8662;DHT22;29684;47.722;9.388;2023-04-16T06:08:14;6.60;99.90
8662;DHT22;29684;47.722;9.388;2023-04-16T06:10:58;6.50;99.90
8662;DHT22;29684;47.722;9.388;2023-04-16T06:13:43;6.50;99.90
8662;DHT22;29684;47.722;9.388;2023-04-16T06:16:27;6.60;99.90
8662;DHT22;29684;47.722;9.388;2023-04-16T06:19:11;6.50;99.90
8662;DHT22;29684;47.722;9.388;2023-04-16T06:21:55;6.60;99.90
8662;DHT22;29684;47.722;9.388;2023-04-16T06:24:40;6.70;99.90
8662;DHT22;29684;47.722;9.388;2023-04-16T06:27:25;6.90;99.90
8662;DHT22;29684;47.722;9.388;2023-04-16T06:30:14;6.90;99.90
8662;DHT22;29684;47.722;9.388;2023-04-16T06:32:59;6.90;99.90
8662;DHT22;29684;47.722;9.388;2023-04-16T06:35:43;6.80;99.90
8662;DHT22;29684;47.722;9.388;2023-04-16T06:38:28;6.70;99.90
8662;DHT22;29684;47.722;9.388;2023-04-16T06:41:13;6.70;99.90
8662;DHT22;29684;47.722;9.388;2023-04-16T06:43:57;6.70;99.90
8662;DHT22;29684;47.722;9.388;2023-04-16T06:46:41;6.70;99.90
8662;DHT22;29684;47.722;9.388;2023-04-16T06:49:25;6.70;99.90
8662;DHT22;29684;47.722;9.388;2023-04-16T06:52:11;6.70;99.90
8662;DHT22;29684;47.722;9.388;2023-04-16T06:54:55;6.80;99.90
8662;DHT22;29684;47.722;9.388;2023-04-16T06:57:39;6.70;99.90
8662;DHT22;29684;47.722;9.388;2023-04-16T07:00:23;6.80;99.90
8662;DHT22;29684;47.722;9.388;2023-04-16T07:03:08;6.70;99.90
8662;DHT22;29684;47.722;9.388;2023-04-16T07:05:52;6.80;99.90
8662;DHT22;29684;47.722;9.388;2023-04-16T07:08:36;6.80;99.90
8662;DHT22;29684;47.722;9.388;2023-04-16T07:11:20;6.80;99.90
8662;DHT22;29684;47.722;9.388;2023-04-16T07:14:05;6.80;99.90
8662;DHT22;29684;47.722;9.388;2023-04-16T07:16:50;6.80;99.90
8662;DHT22;29684;47.722;9.388;2023-04-16T07:19:34;6.80;99.90
8662;DHT22;29684;47.722;9.388;2023-04-16T07:22:19;6.80;99.90
8662;DHT22;29684;47.722;9.388;2023-04-16T07:25:04;6.90;99.90
8662;DHT22;29684;47.722;9.388;2023-04-16T07:27:48;6.90;99.90
8662;DHT22;29684;47.722;9.388;2023-04-16T07:30:32;6.90;99.90
8662;DHT22;29684;47.722;9.388;2023-04-16T07:33:18;6.90;99.90
8662;DHT22;29684;47.722;9.388;2023-04-16T07:36:02;6.90;99.90
8662;DHT22;29684;47.722;9.388;2023-04-16T07:38:46;6.90;99.90
8662;DHT22;29684;47.722;9.388;2023-04-16T07:41:30;7.00;99.90
8662;DHT22;29684;47.722;9.388;2023-04-16T07:44:15;7.00;99.90
8662;DHT22;29684;47.722;9.388;2023-04-16T07:47:00;7.10;99.90
8662;DHT22;29684;47.722;9.388;2023-04-16T07:49:44;7.20;99.90
8662;DHT22;29684;47.722;9.388;2023-04-16T07:52:28;7.10;99.90
8662;DHT22;29684;47.722;9.388;2023-04-16T07:55:13;7.10;99.90
8662;DHT22;29684;47.722;9.388;2023-04-16T07:57:57;7.10;99.90
8662;DHT22;29684;47.722;9.388;2023-04-16T08:00:42;7.00;99.90
8662;DHT22;29684;47.722;9.388;2023-04-16T08:03:26;7.10;99.90
8662;DHT22;29684;47.722;9.388;2023-04-16T08:06:10;7.20;99.90
8662;DHT22;29684;47.722;9.388;2023-04-16T08:08:55;7.20;99.90
8662;DHT22;29684;47.722;9.388;2023-04-16T08:11:39;7.20;99.90
8662;DHT22;29684;47.722;9.388;2023-04-16T08:14:23;7.30;99.90
8662;DHT22;29684;47.722;9.388;2023-04-16T08:17:07;7.30;99.90
8662;DHT22;29684;47.722;9.388;2023-04-16T08:19:52;6.50;99.90
8662;DHT22;29684;47.722;9.388;2023-04-16T08:22:36;7.40;99.90
8662;DHT22;29684;47.722;9.388;2023-04-16T08:25:20;7.40;99.90
8662;DHT22;29684;47.722;9.388;2023-04-16T08:28:07;7.50;99.90
8662;DHT22;29684;47.722;9.388;2023-04-16T08:30:51;7.50;99.90
8662;DHT22;29684;47.722;9.388;2023-04-16T08:33:35;7.40;99.90
8662;DHT22;29684;47.722;9.388;2023-04-16T08:36:19;7.40;99.90
8662;DHT22;29684;47.722;9.388;2023-04-16T08:39:03;7.50;99.90
8662;DHT22;29684;47.722;9.388;2023-04-16T08:41:48;7.50;99.90
8662;DHT22;29684;47.722;9.388;2023-04-16T08:44:36;7.60;99.90
8662;DHT22;29684;47.722;9.388;2023-04-16T08:47:22;7.50;99.90
8662;DHT22;29684;47.722;9.388;2023-04-16T08:50:10;7.40;99.90
8662;DHT22;29684;47.722;9.388;2023-04-16T08:53:00;7.50;99.90
8662;DHT22;29684;47.722;9.388;2023-04-16T08:55:47;7.40;99.90
8662;DHT22;29684;47.722;9.388;2023-04-16T08:58:35;7.40;99.90
8662;DHT22;29684;47.722;9.388;2023-04-16T09:01:21;7.50;99.90
8662;DHT22;29684;47.722;9.388;2023-04-16T09:04:06;7.50;99.90
8662;DHT22;29684;47.722;9.388;2023-04-16T09:06:50;7.50;99.90
8662;DHT22;29684;47.722;9.388;2023-04-16T09:09:37;7.60;99.90
8662;DHT22;29684;47.722;9.388;2023-04-16T09:12:24;7.60;99.90
8662;DHT22;29684;47.722;9.388;2023-04-16T09:15:10;7.50;99.90
8662;DHT22;29684;47.722;9.388;2023-04-16T09:17:55;7.60;99.90
8662;DHT22;29684;47.722;9.388;2023-04-16T09:20:42;7.60;99.90
8662;DHT22;29684;47.722;9.388;2023-04-16T09:23:26;7.50;99.90
8662;DHT22;29684;47.722;9.388;2023-04-16T09:26:10;7.60;99.90
8662;DHT22;29684;47.722;9.388;2023-04-16T09:28:55;7.60;99.90
8662;DHT22;29684;47.722;9.388;2023-04-16T09:31:39;7.60;99.90
8662;DHT22;29684;47.722;9.388;2023-04-16T09:34:24;7.60;99.90
8662;DHT22;29684;47.722;9.388;2023-04-16T09:37:15;7.60;99.90
8662;DHT22;29684;47.722;9.388;2023-04-16T09:40:02;7.70;99.90
8662;DHT22;29684;47.722;9.388;2023-04-16T09:42:48;7.70;99.90
8662;DHT22;29684;47.722;9.388;2023-04-16T09:45:47;7.70;99.90
8662;DHT22;29684;47.722;9.388;2023-04-16T09:48:32;7.70;99.90
8662;DHT22;29684;47.722;9.388;2023-04-16T09:51:17;7.70;99.90
8662;DHT22;29684;47.722;9.388;2023-04-16T09:54:03;7.70;99.90
8662;DHT22;29684;47.722;9.388;2023-04-16T09:56:48;7.80;99.90
8662;DHT22;29684;47.722;9.388;2023-04-16T09:59:34;7.80;99.90
8662;DHT22;29684;47.722;9.388;2023-04-16T10:02:19;7.80;99.90
8662;DHT22;29684;47.722;9.388;2023-04-16T10:05:04;7.70;99.90
8662;DHT22;29684;47.722;9.388;2023-04-16T10:07:49;7.70;99.90
8662;DHT22;29684;47.722;9.388;2023-04-16T10:10:34;7.70;99.90
8662;DHT22;29684;47.722;9.388;2023-04-16T10:13:18;7.80;99.90
8662;DHT22;29684;47.722;9.388;2023-04-16T10:16:02;7.90;99.90
8662;DHT22;29684;47.722;9.388;2023-04-16T10:18:47;7.90;99.90
8662;DHT22;29684;47.722;9.388;2023-04-16T10:21:31;7.90;99.90
8662;DHT22;29684;47.722;9.388;2023-04-16T10:24:17;7.90;99.90
8662;DHT22;29684;47.722;9.388;2023-04-16T10:27:01;7.80;99.90
8662;DHT22;29684;47.722;9.388;2023-04-16T10:29:46;7.90;99.90
8662;DHT22;29684;47.722;9.388;2023-04-16T10:32:32;7.80;99.90
8662;DHT22;29684;47.722;9.388;2023-04-16T10:35:20;7.80;99.90
8662;DHT22;29684;47.722;9.388;2023-04-16T10:38:24;7.90;99.90
8662;DHT22;29684;47.722;9.388;2023-04-16T10:41:09;7.90;99.90
8662;DHT22;29684;47.722;9.388;2023-04-16T10:44:06;7.90;99.90
8662;DHT22;29684;47.722;9.388;2023-04-16T10:46:53;7.80;99.90
8662;DHT22;29684;47.722;9.388;2023-04-16T10:49:37;7.80;99.90
8662;DHT22;29684;47.722;9.388;2023-04-16T10:52:21;7.90;99.90
8662;DHT22;29684;47.722;9.388;2023-04-16T10:55:16;8.00;99.90
8662;DHT22;29684;47.722;9.388;2023-04-16T10:58:00;8.00;99.90
8662;DHT22;29684;47.722;9.388;2023-04-16T11:00:51;8.00;99.90
8662;DHT22;29684;47.722;9.388;2023-04-16T11:03:35;8.00;99.90
8662;DHT22;29684;47.722;9.388;2023-04-16T11:06:26;8.10;99.90
8662;DHT22;29684;47.722;9.388;2023-04-16T11:12:36;8.00;99.90
8662;DHT22;29684;47.722;9.388;2023-04-16T11:15:21;8.00;99.90
8662;DHT22;29684;47.722;9.388;2023-04-16T11:18:06;8.00;99.90
8662;DHT22;29684;47.722;9.388;2023-04-16T11:20:51;9.60;99.90
8662;DHT22;29684;47.722;9.388;2023-04-16T11:23:50;8.00;99.90
8662;DHT22;29684;47.722;9.388;2023-04-16T11:26:34;8.00;99.90
8662;DHT22;29684;47.722;9.388;2023-04-16T11:29:18;8.10;99.90
8662;DHT22;29684;47.722;9.388;2023-04-16T11:32:02;8.10;99.90
8662;DHT22;29684;47.722;9.388;2023-04-16T11:34:47;8.10;99.90
8662;DHT22;29684;47.722;9.388;2023-04-16T11:37:35;8.10;99.90
8662;DHT22;29684;47.722;9.388;2023-04-16T11:40:20;8.20;99.90
8662;DHT22;29684;47.722;9.388;2023-04-16T11:43:15;8.40;99.90
8662;DHT22;29684;47.722;9.388;2023-04-16T11:46:04;8.60;99.90
8662;DHT22;29684;47.722;9.388;2023-04-16T11:48:51;8.70;99.90
8662;DHT22;29684;47.722;9.388;2023-04-16T11:51:45;8.60;99.90
8662;DHT22;29684;47.722;9.388;2023-04-16T11:54:30;8.70;99.90
8662;DHT22;29684;47.722;9.388;2023-04-16T11:57:31;8.70;99.90
8662;DHT22;29684;47.722;9.388;2023-04-16T12:00:15;7.00;99.90
8662;DHT22;29684;47.722;9.388;2023-04-16T12:03:02;9.00;99.90
8662;DHT22;29684;47.722;9.388;2023-04-16T12:05:46;9.20;99.90
8662;DHT22;29684;47.722;9.388;2023-04-16T12:08:30;9.20;99.90
8662;DHT22;29684;47.722;9.388;2023-04-16T12:11:15;9.00;99.90
8662;DHT22;29684;47.722;9.388;2023-04-16T12:14:07;8.80;99.90
8662;DHT22;29684;47.722;9.388;2023-04-16T12:16:51;8.70;99.90
8662;DHT22;29684;47.722;9.388;2023-04-16T12:19:50;8.60;99.90
8662;DHT22;29684;47.722;9.388;2023-04-16T12:22:43;8.60;99.90
8662;DHT22;29684;47.722;9.388;2023-04-16T12:25:27;8.50;99.90
8662;DHT22;29684;47.722;9.388;2023-04-16T12:28:11;8.50;99.90
8662;DHT22;29684;47.722;9.388;2023-04-16T12:30:56;8.80;99.90
8662;DHT22;29684;47.722;9.388;2023-04-16T12:33:41;8.60;99.90
8662;DHT22;29684;47.722;9.388;2023-04-16T12:36:25;8.70;99.90
8662;DHT22;29684;47.722;9.388;2023-04-16T12:39:10;8.70;99.90
8662;DHT22;29684;47.722;9.388;2023-04-16T12:41:54;8.80;99.90
8662;DHT22;29684;47.722;9.388;2023-04-16T12:44:39;8.80;99.90
8662;DHT22;29684;47.722;9.388;2023-04-16T12:47:23;8.70;99.90
8662;DHT22;29684;47.722;9.388;2023-04-16T12:50:08;8.80;99.90
8662;DHT22;29684;47.722;9.388;2023-04-16T12:52:52;8.80;99.90
8662;DHT22;29684;47.722;9.388;2023-04-16T12:55:36;8.80;99.90
8662;DHT22;29684;47.722;9.388;2023-04-16T12:58:20;8.70;99.90
8662;DHT22;29684;47.722;9.388;2023-04-16T13:01:04;8.70;99.90
8662;DHT22;29684;47.722;9.388;2023-04-16T13:03:49;8.70;99.90
8662;DHT22;29684;47.722;9.388;2023-04-16T13:06:33;8.60;99.90
8662;DHT22;29684;47.722;9.388;2023-04-16T13:09:19;8.50;99.90
8662;DHT22;29684;47.722;9.388;2023-04-16T13:12:03;8.50;99.90
8662;DHT22;29684;47.722;9.388;2023-04-16T13:14:48;8.60;99.90
8662;DHT22;29684;47.722;9.388;2023-04-16T13:17:32;8.70;99.90
8662;DHT22;29684;47.722;9.388;2023-04-16T13:20:16;8.80;99.90
8662;DHT22;29684;47.722;9.388;2023-04-16T13:23:01;8.80;99.90
8662;DHT22;29684;47.722;9.388;2023-04-16T13:25:47;8.80;99.90
8662;DHT22;29684;47.722;9.388;2023-04-16T13:28:32;8.70;99.90
8662;DHT22;29684;47.722;9.388;2023-04-16T13:31:16;8.80;99.90
8662;DHT22;29684;47.722;9.388;2023-04-16T13:34:03;8.90;99.90
8662;DHT22;29684;47.722;9.388;2023-04-16T13:36:48;8.80;99.90
8662;DHT22;29684;47.722;9.388;2023-04-16T13:39:32;8.70;99.90
8662;DHT22;29684;47.722;9.388;2023-04-16T13:42:16;8.70;99.90
8662;DHT22;29684;47.722;9.388;2023-04-16T13:45:01;8.70;99.90
8662;DHT22;29684;47.722;9.388;2023-04-16T13:47:46;8.60;99.90
8662;DHT22;29684;47.722;9.388;2023-04-16T13:50:30;8.80;99.90
8662;DHT22;29684;47.722;9.388;2023-04-16T13:53:14;8.80;99.90
8662;DHT22;29684;47.722;9.388;2023-04-16T13:55:58;8.90;99.90
8662;DHT22;29684;47.722;9.388;2023-04-16T13:58:43;8.90;99.90
8662;DHT22;29684;47.722;9.388;2023-04-16T14:01:27;8.90;99.90
8662;DHT22;29684;47.722;9.388;2023-04-16T14:04:12;8.90;99.90
8662;DHT22;29684;47.722;9.388;2023-04-16T14:06:56;9.00;99.90
8662;DHT22;29684;47.722;9.388;2023-04-16T14:09:40;9.10;99.90
8662;DHT22;29684;47.722;9.388;2023-04-16T14:12:24;9.20;99.90
8662;DHT22;29684;47.722;9.388;2023-04-16T14:15:09;9.10;99.90
8662;DHT22;29684;47.722;9.388;2023-04-16T14:17:54;9.20;99.90
8662;DHT22;29684;47.722;9.388;2023-04-16T14:20:38;9.20;99.90
8662;DHT22;29684;47.722;9.388;2023-04-16T14:23:23;9.10;99.90
8662;DHT22;29684;47.722;9.388;2023-04-16T14:26:07;9.00;99.90
8662;DHT22;29684;47.722;9.388;2023-04-16T14:28:51;8.90;99.90
8662;DHT22;29684;47.722;9.388;2023-04-16T14:31:35;8.90;99.90
8662;DHT22;29684;47.722;9.388;2023-04-16T14:34:20;8.90;99.90
8662;DHT22;29684;47.722;9.388;2023-04-16T14:37:04;8.90;99.90
8662;DHT22;29684;47.722;9.388;2023-04-16T14:39:49;8.70;99.90
8662;DHT22;29684;47.722;9.388;2023-04-16T14:42:34;8.70;99.90
8662;DHT22;29684;47.722;9.388;2023-04-16T14:45:19;8.70;99.90
8662;DHT22;29684;47.722;9.388;2023-04-16T14:48:04;8.70;99.90
8662;DHT22;29684;47.722;9.388;2023-04-16T14:50:49;8.60;99.90
8662;DHT22;29684;47.722;9.388;2023-04-16T14:53:36;8.60;99.90
8662;DHT22;29684;47.722;9.388;2023-04-16T14:56:21;8.60;99.90
8662;DHT22;29684;47.722;9.388;2023-04-16T14:59:05;8.70;99.90
8662;DHT22;29684;47.722;9.388;2023-04-16T15:01:49;8.70;99.90
8662;DHT22;29684;47.722;9.388;2023-04-16T15:04:34;8.70;99.90
8662;DHT22;29684;47.722;9.388;2023-04-16T15:07:18;8.70;99.90
8662;DHT22;29684;47.722;9.388;2023-04-16T15:10:02;8.80;99.90
8662;DHT22;29684;47.722;9.388;2023-04-16T15:12:47;8.80;99.90
8662;DHT22;29684;47.722;9.388;2023-04-16T15:15:31;8.90;99.90
8662;DHT22;29684;47.722;9.388;2023-04-16T15:18:15;8.90;99.90
8662;DHT22;29684;47.722;9.388;2023-04-16T15:20:59;8.80;99.90
8662;DHT22;29684;47.722;9.388;2023-04-16T15:23:44;8.80;99.90
8662;DHT22;29684;47.722;9.388;2023-04-16T15:26:28;8.70;99.90
8662;DHT22;29684;47.722;9.388;2023-04-16T15:29:13;8.70;99.90
8662;DHT22;29684;47.722;9.388;2023-04-16T15:31:57;8.90;99.90
8662;DHT22;29684;47.722;9.388;2023-04-16T15:34:41;9.10;99.90
8662;DHT22;29684;47.722;9.388;2023-04-16T15:37:26;9.00;99.90
8662;DHT22;29684;47.722;9.388;2023-04-16T15:40:10;9.00;99.90
8662;DHT22;29684;47.722;9.388;2023-04-16T15:42:55;8.90;99.90
8662;DHT22;29684;47.722;9.388;2023-04-16T15:45:39;8.80;99.90
8662;DHT22;29684;47.722;9.388;2023-04-16T15:48:24;8.70;99.90
8662;DHT22;29684;47.722;9.388;2023-04-16T15:51:09;8.70;99.90
8662;DHT22;29684;47.722;9.388;2023-04-16T15:53:53;8.70;99.90
8662;DHT22;29684;47.722;9.388;2023-04-16T15:56:38;8.60;99.90
8662;DHT22;29684;47.722;9.388;2023-04-16T15:59:22;8.50;99.90
8662;DHT22;29684;47.722;9.388;2023-04-16T16:02:06;8.50;99.90
8662;DHT22;29684;47.722;9.388;2023-04-16T16:04:50;8.40;99.90
8662;DHT22;29684;47.722;9.388;2023-04-16T16:07:35;8.40;99.90
8662;DHT22;29684;47.722;9.388;2023-04-16T16:10:19;8.40;99.90
8662;DHT22;29684;47.722;9.388;2023-04-16T16:13:04;10.00;99.90
8662;DHT22;29684;47.722;9.388;2023-04-16T16:15:50;8.20;99.90
8662;DHT22;29684;47.722;9.388;2023-04-16T16:18:35;8.30;99.90
8662;DHT22;29684;47.722;9.388;2023-04-16T16:21:19;8.30;99.90
8662;DHT22;29684;47.722;9.388;2023-04-16T16:24:04;8.40;99.90
8662;DHT22;29684;47.722;9.388;2023-04-16T16:26:48;8.30;99.90
8662;DHT22;29684;47.722;9.388;2023-04-16T16:29:32;8.30;99.90
8662;DHT22;29684;47.722;9.388;2023-04-16T16:32:16;8.30;99.90
8662;DHT22;29684;47.722;9.388;2023-04-16T16:35:01;8.30;99.90
8662;DHT22;29684;47.722;9.388;2023-04-16T16:37:45;8.20;99.90
8662;DHT22;29684;47.722;9.388;2023-04-16T16:40:30;8.20;99.90
8662;DHT22;29684;47.722;9.388;2023-04-16T16:43:14;8.10;99.90
8662;DHT22;29684;47.722;9.388;2023-04-16T16:45:59;8.10;99.90
8662;DHT22;29684;47.722;9.388;2023-04-16T16:48:43;8.00;99.90
8662;DHT22;29684;47.722;9.388;2023-04-16T16:51:27;8.10;99.90
8662;DHT22;29684;47.722;9.388;2023-04-16T16:54:14;8.10;99.90
8662;DHT22;29684;47.722;9.388;2023-04-16T16:56:58;8.10;99.90
8662;DHT22;29684;47.722;9.388;2023-04-16T16:59:42;8.10;99.90
8662;DHT22;29684;47.722;9.388;2023-04-16T17:02:26;8.00;99.90
8662;DHT22;29684;47.722;9.388;2023-04-16T17:05:11;8.00;99.90
8662;DHT22;29684;47.722;9.388;2023-04-16T17:07:55;8.10;99.90
8662;DHT22;29684;47.722;9.388;2023-04-16T17:10:40;8.10;99.90
8662;DHT22;29684;47.722;9.388;2023-04-16T17:13:24;8.10;99.90
8662;DHT22;29684;47.722;9.388;2023-04-16T17:16:08;8.10;99.90
8662;DHT22;29684;47.722;9.388;2023-04-16T17:18:52;8.00;99.90
8662;DHT22;29684;47.722;9.388;2023-04-16T17:21:37;8.00;99.90
8662;DHT22;29684;47.722;9.388;2023-04-16T17:24:21;8.00;99.90
8662;DHT22;29684;47.722;9.388;2023-04-16T17:27:05;8.10;99.90
8662;DHT22;29684;47.722;9.388;2023-04-16T17:29:50;8.00;99.90
8662;DHT22;29684;47.722;9.388;2023-04-16T17:32:35;8.00;99.90
8662;DHT22;29684;47.722;9.388;2023-04-16T17:35:20;8.00;99.90
8662;DHT22;29684;47.722;9.388;2023-04-16T17:38:04;8.00;99.90
8662;DHT22;29684;47.722;9.388;2023-04-16T17:40:48;8.00;99.90
8662;DHT22;29684;47.722;9.388;2023-04-16T17:43:32;7.90;99.90
8662;DHT22;29684;47.722;9.388;2023-04-16T17:46:16;7.90;99.90
8662;DHT22;29684;47.722;9.388;2023-04-16T17:49:01;7.80;99.90
8662;DHT22;29684;47.722;9.388;2023-04-16T17:51:45;7.80;99.90
8662;DHT22;29684;47.722;9.388;2023-04-16T17:54:29;7.80;99.90
8662;DHT22;29684;47.722;9.388;2023-04-16T17:57:14;7.70;99.90
8662;DHT22;29684;47.722;9.388;2023-04-16T17:59:58;7.70;99.90